createdAt,value
2018-07-19T00:00:17.513Z,19.18
2018-07-19T00:01:17.513Z,19.22
2018-07-19T00:02:17.519Z,19.22
2018-07-19T00:03:17.521Z,19.14
2018-07-19T00:04:17.525Z,19.08
2018-07-19T00:05:17.559Z,19.14
2018-07-19T00:06:17.530Z,19.09
2018-07-19T00:07:17.533Z,19.11
2018-07-19T00:08:17.537Z,19.08
2018-07-19T00:09:17.541Z,19.08
2018-07-19T00:10:17.543Z,19.11
2018-07-19T00:11:17.546Z,19.07
2018-07-19T00:12:17.549Z,19.00
2018-07-19T00:13:17.552Z,19.04
2018-07-19T00:14:17.555Z,18.95
2018-07-19T00:15:17.557Z,18.98
2018-07-19T00:16:17.563Z,19.07
2018-07-19T00:17:17.563Z,19.02
2018-07-19T00:18:17.567Z,19.04
2018-07-19T00:19:17.570Z,19.00
2018-07-19T00:20:17.575Z,19.04
2018-07-19T00:21:17.578Z,18.90
2018-07-19T00:22:17.578Z,18.93
2018-07-19T00:23:17.583Z,18.96
2018-07-19T00:24:17.586Z,18.95
2018-07-19T00:25:17.590Z,18.99
2018-07-19T00:26:17.591Z,18.95
2018-07-19T00:27:17.595Z,18.95
2018-07-19T00:28:17.598Z,18.93
2018-07-19T00:29:17.601Z,18.96
2018-07-19T00:30:17.603Z,18.98
2018-07-19T00:31:17.607Z,18.89
2018-07-19T00:32:17.611Z,18.98
2018-07-19T00:33:17.613Z,18.90
2018-07-19T00:34:17.617Z,18.90
2018-07-19T00:35:17.620Z,18.93
2018-07-19T00:36:17.620Z,18.83
2018-07-19T00:37:17.627Z,18.84
2018-07-19T00:38:17.627Z,18.88
2018-07-19T00:39:17.630Z,18.80
2018-07-19T00:40:17.634Z,18.86
2018-07-19T00:41:17.639Z,18.75
2018-07-19T00:42:17.638Z,18.81
2018-07-19T00:43:17.641Z,18.73
2018-07-19T00:44:17.644Z,18.71
2018-07-19T00:45:17.648Z,18.70
2018-07-19T00:46:17.651Z,18.71
2018-07-19T00:47:17.654Z,18.62
2018-07-19T00:48:17.656Z,18.50
2018-07-19T00:49:17.660Z,18.44
2018-07-19T00:50:17.661Z,18.43
2018-07-19T00:51:17.665Z,18.40
2018-07-19T00:52:17.667Z,18.41
2018-07-19T00:53:17.673Z,18.40
2018-07-19T00:54:17.672Z,18.29
2018-07-19T00:55:17.677Z,18.20
2018-07-19T00:56:17.678Z,18.29
2018-07-19T00:57:17.681Z,18.18
2018-07-19T00:58:17.685Z,18.26
2018-07-19T00:59:17.687Z,18.19
2018-07-19T01:00:17.690Z,18.22
2018-07-19T01:01:17.691Z,18.23
2018-07-19T01:02:17.695Z,18.19
2018-07-19T01:03:17.697Z,18.28
2018-07-19T01:04:17.701Z,18.22
2018-07-19T01:05:17.704Z,18.22
2018-07-19T01:06:17.706Z,18.23
2018-07-19T01:07:17.707Z,18.23
2018-07-19T01:08:17.713Z,18.19
2018-07-19T01:09:17.715Z,18.04
2018-07-19T01:10:17.718Z,18.04
2018-07-19T01:11:17.721Z,17.95
2018-07-19T01:12:17.721Z,18.00
2018-07-19T01:13:17.725Z,17.87
2018-07-19T01:14:17.727Z,17.89
2018-07-19T01:15:17.731Z,17.89
2018-07-19T01:16:17.732Z,17.82
2018-07-19T01:17:17.735Z,17.76
2018-07-19T01:18:17.738Z,17.72
2018-07-19T01:19:17.739Z,17.78
2018-07-19T01:20:17.744Z,17.78
2018-07-19T01:21:17.746Z,17.71
2018-07-19T01:22:17.748Z,17.57
2018-07-19T01:23:17.752Z,17.57
2018-07-19T01:24:17.754Z,17.56
2018-07-19T01:25:17.756Z,17.52
2018-07-19T01:26:17.758Z,17.54
2018-07-19T01:27:17.761Z,17.44
2018-07-19T01:28:17.764Z,17.49
2018-07-19T01:29:17.768Z,17.27
2018-07-19T01:30:17.767Z,17.33
2018-07-19T01:31:17.770Z,17.22
2018-07-19T01:32:17.774Z,17.19
2018-07-19T01:33:17.776Z,17.16
2018-07-19T01:34:17.778Z,17.19
2018-07-19T01:35:17.782Z,17.26
2018-07-19T01:36:17.784Z,17.22
2018-07-19T01:37:17.788Z,17.14
2018-07-19T01:38:17.787Z,17.19
2018-07-19T01:39:17.791Z,17.09
2018-07-19T01:40:17.793Z,17.09
2018-07-19T01:41:17.796Z,17.11
2018-07-19T01:42:17.805Z,17.01
2018-07-19T01:43:17.801Z,17.05
2018-07-19T01:44:17.803Z,16.99
2018-07-19T01:45:17.806Z,17.05
2018-07-19T01:46:17.808Z,17.04
2018-07-19T01:47:17.810Z,16.96
2018-07-19T01:48:17.812Z,16.99
2018-07-19T01:49:17.815Z,16.97
2018-07-19T01:50:17.816Z,16.89
2018-07-19T01:51:17.818Z,16.87
2018-07-19T01:52:17.822Z,16.87
2018-07-19T01:53:17.826Z,16.87
2018-07-19T01:54:17.826Z,16.87
2018-07-19T01:55:17.832Z,16.94
2018-07-19T01:56:17.830Z,16.87
2018-07-19T01:57:17.834Z,16.90
2018-07-19T01:58:17.834Z,16.93
2018-07-19T01:59:17.837Z,16.87
2018-07-19T02:00:17.842Z,16.97
2018-07-19T02:01:17.841Z,16.94
2018-07-19T02:02:17.842Z,16.94
2018-07-19T02:03:17.846Z,16.99
2018-07-19T02:04:17.848Z,16.97
2018-07-19T02:05:17.851Z,16.96
2018-07-19T02:06:17.852Z,16.99
2018-07-19T02:07:17.858Z,17.01
2018-07-19T02:08:17.857Z,16.99
2018-07-19T02:09:17.859Z,17.01
2018-07-19T02:10:17.860Z,16.96
2018-07-19T02:11:17.863Z,17.01
2018-07-19T02:12:17.865Z,17.01
2018-07-19T02:13:17.868Z,17.05
2018-07-19T02:14:17.868Z,17.01
2018-07-19T02:15:17.870Z,17.02
2018-07-19T02:16:17.873Z,17.01
2018-07-19T02:17:17.876Z,17.02
2018-07-19T02:18:17.879Z,17.05
2018-07-19T02:19:17.879Z,17.06
2018-07-19T02:20:17.886Z,17.06
2018-07-19T02:21:17.885Z,17.05
2018-07-19T02:22:17.885Z,17.11
2018-07-19T02:23:17.888Z,17.14
2018-07-19T02:24:17.891Z,17.19
2018-07-19T02:25:17.895Z,17.06
2018-07-19T02:26:17.893Z,17.04
2018-07-19T02:27:17.895Z,17.08
2018-07-19T02:28:17.899Z,17.06
2018-07-19T02:29:17.899Z,17.01
2018-07-19T02:30:17.901Z,17.01
2018-07-19T02:31:17.904Z,17.04
2018-07-19T02:32:17.905Z,16.99
2018-07-19T02:33:17.908Z,17.02
2018-07-19T02:34:17.909Z,17.01
2018-07-19T02:35:17.910Z,16.96
2018-07-19T02:36:17.914Z,17.01
2018-07-19T02:37:17.915Z,16.99
2018-07-19T02:38:17.917Z,16.96
2018-07-19T02:39:17.921Z,17.09
2018-07-19T02:40:17.921Z,17.06
2018-07-19T02:41:17.922Z,17.20
2018-07-19T02:42:17.924Z,17.14
2018-07-19T02:43:17.925Z,17.15
2018-07-19T02:44:17.929Z,17.19
2018-07-19T02:45:17.930Z,17.23
2018-07-19T02:46:17.932Z,17.27
2018-07-19T02:47:17.932Z,17.27
2018-07-19T02:48:17.936Z,17.34
2018-07-19T02:49:17.939Z,17.24
2018-07-19T02:50:17.938Z,17.29
2018-07-19T02:51:17.941Z,17.34
2018-07-19T02:52:17.944Z,17.30
2018-07-19T02:53:17.945Z,17.24
2018-07-19T02:54:17.946Z,17.29
2018-07-19T02:55:17.946Z,17.34
2018-07-19T02:56:17.950Z,17.29
2018-07-19T02:57:17.952Z,17.24
2018-07-19T02:58:17.954Z,17.23
2018-07-19T02:59:17.954Z,17.23
2018-07-19T03:00:17.958Z,17.15
2018-07-19T03:01:17.959Z,17.15
2018-07-19T03:02:17.962Z,17.16
2018-07-19T03:03:17.965Z,17.12
2018-07-19T03:04:17.965Z,17.16
2018-07-19T03:05:17.966Z,17.19
2018-07-19T03:06:17.967Z,17.11
2018-07-19T03:07:17.968Z,17.08
2018-07-19T03:08:17.972Z,17.08
2018-07-19T03:09:17.972Z,17.06
2018-07-19T03:10:17.973Z,17.05
2018-07-19T03:11:17.977Z,17.05
2018-07-19T03:12:17.978Z,17.02
2018-07-19T03:13:17.979Z,17.02
2018-07-19T03:14:17.981Z,17.08
2018-07-19T03:15:17.982Z,17.01
2018-07-19T03:16:17.984Z,16.97
2018-07-19T03:17:17.989Z,16.99
2018-07-19T03:18:17.989Z,17.02
2018-07-19T03:19:17.993Z,17.02
2018-07-19T03:20:17.991Z,16.96
2018-07-19T03:21:17.993Z,16.94
2018-07-19T03:22:18.000Z,16.97
2018-07-19T03:23:17.996Z,16.89
2018-07-19T03:24:17.998Z,16.86
2018-07-19T03:25:18.001Z,16.86
2018-07-19T03:26:18.003Z,16.90
2018-07-19T03:27:18.003Z,16.90
2018-07-19T03:28:18.003Z,16.94
2018-07-19T03:29:18.011Z,17.05
2018-07-19T03:30:18.008Z,16.99
2018-07-19T03:31:18.010Z,16.99
2018-07-19T03:32:18.011Z,16.99
2018-07-19T03:33:18.013Z,16.97
2018-07-19T03:34:18.014Z,16.86
2018-07-19T03:35:18.017Z,16.86
2018-07-19T03:36:18.018Z,16.86
2018-07-19T03:37:18.020Z,16.86
2018-07-19T03:38:18.021Z,16.96
2018-07-19T03:39:18.022Z,16.97
2018-07-19T03:40:18.026Z,17.05
2018-07-19T03:41:18.029Z,17.02
2018-07-19T03:42:18.027Z,17.20
2018-07-19T03:43:18.029Z,17.20
2018-07-19T03:44:18.029Z,17.31
2018-07-19T03:45:18.034Z,17.20
2018-07-19T03:46:18.034Z,17.27
2018-07-19T03:47:18.035Z,17.34
2018-07-19T03:48:18.037Z,17.24
2018-07-19T03:49:18.040Z,17.16
2018-07-19T03:50:18.039Z,17.20
2018-07-19T03:51:18.042Z,17.06
2018-07-19T03:52:18.043Z,16.99
2018-07-19T03:53:18.046Z,16.96
2018-07-19T03:54:18.046Z,16.94
2018-07-19T03:55:18.048Z,16.89
2018-07-19T03:56:18.050Z,16.83
2018-07-19T03:57:18.052Z,16.90
2018-07-19T03:58:18.052Z,16.83
2018-07-19T03:59:18.054Z,16.83
2018-07-19T04:00:18.056Z,16.86
2018-07-19T04:01:18.057Z,16.81
2018-07-19T04:02:18.057Z,16.76
2018-07-19T04:03:18.061Z,16.74
2018-07-19T04:04:18.061Z,16.58
2018-07-19T04:05:18.065Z,16.60
2018-07-19T04:06:18.064Z,16.53
2018-07-19T04:07:18.068Z,16.53
2018-07-19T04:08:18.068Z,16.50
2018-07-19T04:09:18.069Z,16.47
2018-07-19T04:10:18.072Z,16.33
2018-07-19T04:11:18.072Z,16.43
2018-07-19T04:12:18.075Z,16.42
2018-07-19T04:13:18.076Z,16.41
2018-07-19T04:14:18.077Z,16.43
2018-07-19T04:15:18.079Z,16.41
2018-07-19T04:16:18.081Z,16.42
2018-07-19T04:17:18.082Z,16.28
2018-07-19T04:18:18.084Z,16.29
2018-07-19T04:19:18.085Z,16.39
2018-07-19T04:20:18.088Z,16.24
2018-07-19T04:21:18.089Z,16.35
2018-07-19T04:22:18.090Z,16.33
2018-07-19T04:23:18.092Z,16.42
2018-07-19T04:24:18.094Z,16.39
2018-07-19T04:25:18.096Z,16.47
2018-07-19T04:26:18.095Z,16.50
2018-07-19T04:27:18.098Z,16.49
2018-07-19T04:28:18.098Z,16.42
2018-07-19T04:29:18.100Z,16.54
2018-07-19T04:30:18.102Z,16.56
2018-07-19T04:31:18.103Z,16.60
2018-07-19T04:32:18.144Z,16.60
2018-07-19T04:33:18.107Z,16.60
2018-07-19T04:34:18.107Z,16.71
2018-07-19T04:35:18.110Z,16.72
2018-07-19T04:36:18.112Z,16.81
2018-07-19T04:37:18.117Z,16.81
2018-07-19T04:38:18.165Z,16.84
2018-07-19T04:39:18.114Z,16.90
2018-07-19T04:40:18.117Z,16.99
2018-07-19T04:41:18.119Z,16.99
2018-07-19T04:42:18.120Z,16.93
2018-07-19T04:43:18.126Z,16.94
2018-07-19T04:44:18.124Z,16.99
2018-07-19T04:45:18.124Z,17.09
2018-07-19T04:46:18.126Z,17.15
2018-07-19T04:47:18.129Z,17.19
2018-07-19T04:48:18.142Z,17.27
2018-07-19T04:49:18.133Z,17.39
2018-07-19T04:50:18.133Z,17.45
2018-07-19T04:51:18.135Z,17.44
2018-07-19T04:52:18.141Z,17.44
2018-07-19T04:53:18.139Z,17.52
2018-07-19T04:54:18.140Z,17.68
2018-07-19T04:55:18.142Z,17.79
2018-07-19T04:56:18.144Z,17.80
2018-07-19T04:57:18.147Z,17.98
2018-07-19T04:58:18.147Z,17.98
2018-07-19T04:59:18.153Z,18.15
2018-07-19T05:00:18.153Z,18.22
2018-07-19T05:01:18.155Z,18.23
2018-07-19T05:02:18.156Z,18.26
2018-07-19T05:03:18.157Z,18.35
2018-07-19T05:04:18.160Z,18.53
2018-07-19T05:05:18.162Z,18.52
2018-07-19T05:06:18.164Z,18.71
2018-07-19T05:07:18.166Z,18.75
2018-07-19T05:08:18.169Z,18.89
2018-07-19T05:09:18.171Z,18.95
2018-07-19T05:10:18.173Z,18.92
2018-07-19T05:11:18.175Z,19.02
2018-07-19T05:12:18.178Z,19.18
2018-07-19T05:13:18.182Z,19.24
2018-07-19T05:14:18.183Z,19.24
2018-07-19T05:15:18.185Z,19.27
2018-07-19T05:16:18.190Z,19.30
2018-07-19T05:17:18.191Z,19.34
2018-07-19T05:18:18.194Z,19.34
2018-07-19T05:19:18.197Z,19.36
2018-07-19T05:20:18.199Z,19.56
2018-07-19T05:21:18.203Z,19.55
2018-07-19T05:22:18.203Z,19.62
2018-07-19T05:23:18.227Z,19.77
2018-07-19T05:24:18.211Z,20.14
2018-07-19T05:25:18.214Z,20.28
2018-07-19T05:26:18.217Z,20.34
2018-07-19T05:27:18.222Z,20.25
2018-07-19T05:28:18.226Z,20.03
2018-07-19T05:29:18.229Z,20.02
2018-07-19T05:30:18.231Z,19.89
2018-07-19T05:31:18.234Z,19.89
2018-07-19T05:32:18.238Z,19.91
2018-07-19T05:33:18.241Z,20.03
2018-07-19T05:34:18.244Z,20.43
2018-07-19T05:35:18.248Z,20.59
2018-07-19T05:36:18.253Z,20.62
2018-07-19T05:37:18.255Z,20.44
2018-07-19T05:38:18.258Z,20.48
2018-07-19T05:39:18.262Z,20.43
2018-07-19T05:40:18.266Z,20.44
2018-07-19T05:41:18.271Z,20.48
2018-07-19T05:42:18.301Z,20.41
2018-07-19T05:43:18.278Z,20.40
2018-07-19T05:44:18.281Z,20.36
2018-07-19T05:45:18.285Z,20.32
2018-07-19T05:46:18.289Z,20.14
2018-07-19T05:47:18.294Z,20.11
2018-07-19T05:48:18.298Z,20.24
2018-07-19T05:49:18.302Z,20.25
2018-07-19T05:50:18.304Z,20.28
2018-07-19T05:51:18.314Z,20.34
2018-07-19T05:52:18.312Z,20.32
2018-07-19T05:53:18.317Z,20.24
2018-07-19T05:54:18.322Z,20.19
2018-07-19T05:55:18.326Z,20.14
2018-07-19T05:56:18.330Z,20.40
2018-07-19T05:57:18.335Z,20.31
2018-07-19T05:58:18.347Z,20.47
2018-07-19T05:59:18.342Z,20.47
2018-07-19T06:00:18.346Z,20.44
2018-07-19T06:01:18.352Z,20.34
2018-07-19T06:02:18.355Z,20.21
2018-07-19T06:03:18.358Z,20.29
2018-07-19T06:04:18.363Z,20.41
2018-07-19T06:05:18.368Z,20.44
2018-07-19T06:06:18.373Z,20.44
2018-07-19T06:07:18.376Z,20.70
2018-07-19T06:08:18.381Z,20.96
2018-07-19T06:09:18.384Z,20.96
2018-07-19T06:10:18.389Z,20.99
2018-07-19T06:11:18.393Z,21.14
2018-07-19T06:12:18.401Z,21.30
2018-07-19T06:13:18.403Z,21.32
2018-07-19T06:14:18.406Z,21.39
2018-07-19T06:15:18.412Z,21.43
2018-07-19T06:16:18.416Z,21.48
2018-07-19T06:17:18.421Z,21.46
2018-07-19T06:18:18.425Z,21.52
2018-07-19T06:19:18.430Z,21.55
2018-07-19T06:20:18.435Z,21.70
2018-07-19T06:21:18.440Z,21.62
2018-07-19T06:22:18.445Z,21.70
2018-07-19T06:23:18.451Z,21.79
2018-07-19T06:24:18.456Z,21.82
2018-07-19T06:25:18.460Z,21.93
2018-07-19T06:26:18.465Z,22.02
2018-07-19T06:27:18.471Z,21.79
2018-07-19T06:28:18.496Z,21.80
2018-07-19T06:29:18.483Z,21.98
2018-07-19T06:30:18.486Z,21.96
2018-07-19T06:31:18.491Z,21.92
2018-07-19T06:32:18.499Z,21.95
2018-07-19T06:33:18.503Z,21.98
2018-07-19T06:34:18.507Z,22.14
2018-07-19T06:35:18.512Z,22.28
2018-07-19T06:36:18.520Z,22.41
2018-07-19T06:37:18.524Z,22.39
2018-07-19T06:38:18.531Z,22.35
2018-07-19T06:39:18.536Z,22.29
2018-07-19T06:40:18.541Z,22.45
2018-07-19T06:41:18.570Z,22.57
2018-07-19T06:42:18.552Z,22.51
2018-07-19T06:43:18.558Z,22.53
2018-07-19T06:44:18.564Z,22.72
2018-07-19T06:45:18.570Z,22.80
2018-07-19T06:46:18.576Z,22.78
2018-07-19T06:47:18.580Z,22.93
2018-07-19T06:48:18.586Z,22.94
2018-07-19T06:49:18.602Z,22.90
2018-07-19T06:50:18.598Z,23.05
2018-07-19T06:51:18.605Z,23.05
2018-07-19T06:52:18.612Z,23.13
2018-07-19T06:53:18.619Z,22.93
2018-07-19T06:54:18.625Z,23.03
2018-07-19T06:55:18.629Z,22.96
2018-07-19T06:56:18.636Z,23.09
2018-07-19T06:57:18.644Z,23.27
2018-07-19T06:58:18.648Z,23.23
2018-07-19T06:59:18.659Z,23.03
2018-07-19T07:00:18.663Z,22.94
2018-07-19T07:01:18.668Z,22.99
2018-07-19T07:02:18.673Z,23.28
2018-07-19T07:03:18.681Z,23.18
2018-07-19T07:04:18.688Z,23.23
2018-07-19T07:05:18.695Z,23.40
2018-07-19T07:06:18.701Z,23.27
2018-07-19T07:07:18.707Z,23.54
2018-07-19T07:08:18.715Z,23.62
2018-07-19T07:09:18.721Z,23.37
2018-07-19T07:10:18.726Z,23.28
2018-07-19T07:11:18.733Z,23.08
2018-07-19T07:12:18.741Z,23.23
2018-07-19T07:13:18.748Z,23.18
2018-07-19T07:14:18.753Z,22.93
2018-07-19T07:15:18.760Z,22.94
2018-07-19T07:16:18.767Z,22.96
2018-07-19T07:17:18.775Z,23.10
2018-07-19T07:18:18.781Z,23.23
2018-07-19T07:19:18.788Z,23.31
2018-07-19T07:20:18.794Z,23.05
2018-07-19T07:21:18.821Z,22.99
2018-07-19T07:22:18.807Z,23.06
2018-07-19T07:23:18.815Z,23.21
2018-07-19T07:24:18.820Z,23.32
2018-07-19T07:25:18.829Z,23.47
2018-07-19T07:26:18.837Z,23.50
2018-07-19T07:27:18.844Z,23.39
2018-07-19T07:28:18.881Z,23.31
2018-07-19T07:29:18.856Z,23.50
2018-07-19T07:30:18.862Z,23.66
2018-07-19T07:31:18.869Z,23.55
2018-07-19T07:32:18.876Z,23.37
2018-07-19T07:33:18.885Z,23.51
2018-07-19T07:34:18.891Z,23.62
2018-07-19T07:35:18.896Z,23.59
2018-07-19T07:36:18.905Z,23.81
2018-07-19T07:37:18.913Z,23.86
2018-07-19T07:38:18.918Z,23.96
2018-07-19T07:39:18.925Z,24.05
2018-07-19T07:40:18.933Z,24.40
2018-07-19T07:41:18.941Z,24.57
2018-07-19T07:42:18.950Z,24.66
2018-07-19T07:43:18.954Z,24.38
2018-07-19T07:44:18.976Z,24.43
2018-07-19T07:45:18.972Z,24.16
2018-07-19T07:46:18.977Z,24.26
2018-07-19T07:47:18.987Z,24.23
2018-07-19T07:48:18.993Z,24.69
2018-07-19T07:49:19.001Z,24.86
2018-07-19T07:50:19.010Z,24.74
2018-07-19T07:51:19.018Z,24.68
2018-07-19T07:52:19.026Z,24.93
2018-07-19T07:53:19.036Z,25.13
2018-07-19T07:54:19.063Z,25.16
2018-07-19T07:55:19.050Z,25.22
2018-07-19T07:56:19.059Z,25.43
2018-07-19T07:57:19.068Z,25.38
2018-07-19T07:58:19.076Z,25.29
2018-07-19T07:59:19.089Z,25.17
2018-07-19T08:00:19.094Z,25.13
2018-07-19T08:01:19.103Z,25.21
2018-07-19T08:02:19.111Z,25.23
2018-07-19T08:03:19.120Z,24.86
2018-07-19T08:04:19.130Z,24.85
2018-07-19T08:05:19.139Z,25.11
2018-07-19T08:06:19.147Z,24.98
2018-07-19T08:07:19.156Z,24.86
2018-07-19T08:08:19.165Z,25.31
2018-07-19T08:09:19.175Z,26.44
2018-07-19T08:10:19.184Z,26.53
2018-07-19T08:11:19.193Z,26.18
2018-07-19T08:12:19.203Z,25.93
2018-07-19T08:13:19.213Z,25.83
2018-07-19T08:14:19.220Z,25.70
2018-07-19T08:15:19.232Z,25.72
2018-07-19T08:16:19.242Z,25.69
2018-07-19T08:17:19.250Z,25.80
2018-07-19T08:18:19.259Z,25.69
2018-07-19T08:19:19.269Z,25.54
2018-07-19T08:20:19.293Z,25.44
2018-07-19T08:21:19.291Z,25.59
2018-07-19T08:22:19.299Z,25.70
2018-07-19T08:23:19.308Z,25.73
2018-07-19T08:24:19.317Z,25.70
2018-07-19T08:25:19.329Z,26.51
2018-07-19T08:26:19.336Z,26.70
2018-07-19T08:27:19.346Z,27.30
2018-07-19T08:28:19.356Z,27.35
2018-07-19T08:29:19.369Z,27.25
2018-07-19T08:30:19.376Z,27.07
2018-07-19T08:31:19.387Z,26.75
2018-07-19T08:32:19.405Z,26.81
2018-07-19T08:33:19.407Z,26.74
2018-07-19T08:34:19.417Z,26.65
2018-07-19T08:35:19.428Z,26.60
2018-07-19T08:36:19.446Z,26.90
2018-07-19T08:37:19.448Z,26.60
2018-07-19T08:38:19.458Z,26.95
2018-07-19T08:39:19.470Z,27.67
2018-07-19T08:40:19.482Z,27.85
2018-07-19T08:41:19.491Z,28.02
2018-07-19T08:42:19.502Z,27.86
2018-07-19T08:43:19.514Z,27.36
2018-07-19T08:44:19.523Z,27.11
2018-07-19T08:45:19.536Z,27.00
2018-07-19T08:46:19.547Z,27.03
2018-07-19T08:47:19.557Z,27.11
2018-07-19T08:48:19.568Z,27.02
2018-07-19T08:49:19.580Z,26.89
2018-07-19T08:50:19.590Z,27.22
2018-07-19T08:51:19.603Z,27.87
2018-07-19T08:52:19.613Z,27.74
2018-07-19T08:53:19.625Z,27.59
2018-07-19T08:54:19.637Z,27.85
2018-07-19T08:55:19.648Z,28.15
2018-07-19T08:56:19.660Z,28.30
2018-07-19T08:57:19.672Z,29.14
2018-07-19T08:58:19.684Z,29.84
2018-07-19T08:59:19.696Z,30.30
2018-07-19T09:00:19.714Z,30.34
2018-07-19T09:01:19.722Z,29.69
2018-07-19T09:02:19.777Z,29.39
2018-07-19T09:03:19.748Z,28.96
2018-07-19T09:04:19.761Z,29.35
2018-07-19T09:05:19.776Z,28.86
2018-07-19T09:06:19.786Z,29.51
2018-07-19T09:07:19.802Z,29.53
2018-07-19T09:08:19.818Z,28.82
2018-07-19T09:09:19.827Z,28.10
2018-07-19T09:10:19.841Z,28.12
2018-07-19T09:11:19.859Z,28.48
2018-07-19T09:12:19.905Z,29.65
2018-07-19T09:13:19.883Z,30.02
2018-07-19T09:14:19.897Z,30.34
2018-07-19T09:15:19.911Z,30.24
2018-07-19T09:16:19.924Z,29.98
2018-07-19T09:17:19.938Z,29.97
2018-07-19T09:18:19.954Z,29.26
2018-07-19T09:19:20.014Z,28.88
2018-07-19T09:20:19.980Z,28.81
2018-07-19T09:21:19.994Z,29.19
2018-07-19T09:22:20.010Z,29.35
2018-07-19T09:23:20.023Z,28.94
2018-07-19T09:24:20.035Z,28.59
2018-07-19T09:25:20.051Z,28.60
2018-07-19T09:26:20.063Z,27.93
2018-07-19T09:27:20.077Z,27.96
2018-07-19T09:28:20.090Z,28.29
2018-07-19T09:29:20.105Z,28.37
2018-07-19T09:30:20.117Z,28.29
2018-07-19T09:31:20.132Z,28.30
2018-07-19T09:32:20.144Z,28.39
2018-07-19T09:33:20.158Z,28.42
2018-07-19T09:34:20.170Z,28.38
2018-07-19T09:35:20.185Z,27.73
2018-07-19T09:36:20.199Z,27.82
2018-07-19T09:37:20.213Z,27.86
2018-07-19T09:38:20.270Z,28.29
2018-07-19T09:39:20.239Z,28.86
2018-07-19T09:40:20.252Z,29.04
2018-07-19T09:41:20.265Z,28.98
2018-07-19T09:42:20.277Z,28.96
2018-07-19T09:43:20.291Z,29.12
2018-07-19T09:44:20.304Z,28.81
2018-07-19T09:45:20.317Z,28.64
2018-07-19T09:46:20.330Z,28.66
2018-07-19T09:47:20.348Z,28.79
2018-07-19T09:48:20.358Z,29.13
2018-07-19T09:49:20.370Z,29.61
2018-07-19T09:50:20.383Z,30.23
2018-07-19T09:51:20.396Z,29.68
2018-07-19T09:52:20.410Z,29.13
2018-07-19T09:53:20.423Z,29.38
2018-07-19T09:54:20.437Z,29.88
2018-07-19T09:55:20.452Z,29.66
2018-07-19T09:56:20.465Z,30.28
2018-07-19T09:57:20.477Z,30.27
2018-07-19T09:58:20.489Z,30.10
2018-07-19T09:59:20.524Z,30.63
2018-07-19T10:00:20.520Z,30.72
2018-07-19T10:01:20.533Z,31.36
2018-07-19T10:02:20.547Z,30.77
2018-07-19T10:03:20.560Z,30.94
2018-07-19T10:04:20.576Z,30.99
2018-07-19T10:05:20.591Z,31.14
2018-07-19T10:06:20.604Z,31.40
2018-07-19T10:07:20.617Z,31.99
2018-07-19T10:08:20.633Z,32.30
2018-07-19T10:09:20.649Z,32.07
2018-07-19T10:10:20.710Z,32.31
2018-07-19T10:11:20.676Z,31.78
2018-07-19T10:12:20.692Z,30.88
2018-07-19T10:13:20.707Z,30.51
2018-07-19T10:14:20.719Z,29.98
2018-07-19T10:15:20.760Z,29.72
2018-07-19T10:16:20.751Z,30.05
2018-07-19T10:17:20.811Z,29.69
2018-07-19T10:18:20.779Z,30.03
2018-07-19T10:19:20.794Z,30.70
2018-07-19T10:20:20.809Z,30.62
2018-07-19T10:21:20.825Z,30.90
2018-07-19T10:22:20.837Z,30.12
2018-07-19T10:23:20.852Z,30.21
2018-07-19T10:24:20.894Z,29.82
2018-07-19T10:25:20.883Z,29.49
2018-07-19T10:26:20.897Z,29.36
2018-07-19T10:27:20.917Z,30.15
2018-07-19T10:28:20.926Z,30.99
2018-07-19T10:29:20.943Z,31.07
2018-07-19T10:30:20.958Z,31.47
2018-07-19T10:31:20.970Z,32.19
2018-07-19T10:32:21.034Z,32.55
2018-07-19T10:33:20.999Z,32.45
2018-07-19T10:34:21.071Z,31.97
2018-07-19T10:35:21.030Z,30.84
2018-07-19T10:36:21.044Z,30.51
2018-07-19T10:37:21.058Z,30.10
2018-07-19T10:38:21.080Z,29.04
2018-07-19T10:39:21.090Z,28.67
2018-07-19T10:40:21.102Z,28.45
2018-07-19T10:41:21.119Z,28.33
2018-07-19T10:42:21.132Z,28.41
2018-07-19T10:43:21.146Z,28.98
2018-07-19T10:44:21.206Z,28.86
2018-07-19T10:45:21.174Z,29.63
2018-07-19T10:46:21.187Z,30.46
2018-07-19T10:47:21.203Z,30.00
2018-07-19T10:48:21.217Z,29.88
2018-07-19T10:49:21.230Z,29.35
2018-07-19T10:50:21.243Z,28.82
2018-07-19T10:51:21.257Z,28.98
2018-07-19T10:52:21.273Z,29.17
2018-07-19T10:53:21.286Z,29.36
2018-07-19T10:54:21.299Z,30.06
2018-07-19T10:55:21.313Z,29.82
2018-07-19T10:56:21.327Z,30.32
2018-07-19T10:57:21.387Z,30.55
2018-07-19T10:58:21.353Z,31.43
2018-07-19T10:59:21.366Z,30.91
2018-07-19T11:00:21.379Z,30.80
2018-07-19T11:01:21.392Z,30.28
2018-07-19T11:02:21.408Z,30.12
2018-07-19T11:03:21.420Z,29.61
2018-07-19T11:04:21.434Z,29.68
2018-07-19T11:05:21.447Z,30.70
2018-07-19T11:06:21.460Z,31.20
2018-07-19T11:07:21.473Z,31.42
2018-07-19T11:08:21.488Z,31.52
2018-07-19T11:09:21.521Z,31.25
2018-07-19T11:10:21.514Z,30.47
2018-07-19T11:11:21.527Z,30.03
2018-07-19T11:12:21.540Z,30.08
2018-07-19T11:13:21.552Z,29.76
2018-07-19T11:14:21.566Z,29.51
2018-07-19T11:15:21.580Z,29.26
2018-07-19T11:16:21.596Z,29.60
2018-07-19T11:17:21.609Z,30.32
2018-07-19T11:18:21.619Z,30.72
2018-07-19T11:19:21.632Z,30.18
2018-07-19T11:20:21.649Z,29.82
2018-07-19T11:21:21.661Z,29.86
2018-07-19T11:22:21.673Z,30.90
2018-07-19T11:23:21.688Z,31.34
2018-07-19T11:24:21.701Z,31.25
2018-07-19T11:25:21.712Z,31.51
2018-07-19T11:26:21.725Z,31.43
2018-07-19T11:27:21.737Z,31.18
2018-07-19T11:28:21.755Z,30.09
2018-07-19T11:29:21.764Z,29.19
2018-07-19T11:30:21.775Z,29.17
2018-07-19T11:31:21.789Z,29.17
2018-07-19T11:32:21.802Z,29.27
2018-07-19T11:33:21.816Z,29.39
2018-07-19T11:34:21.827Z,29.50
2018-07-19T11:35:21.909Z,29.56
2018-07-19T11:36:21.853Z,29.73
2018-07-19T11:37:21.868Z,29.68
2018-07-19T11:38:21.878Z,29.39
2018-07-19T11:39:21.891Z,28.86
2018-07-19T11:40:21.904Z,28.88
2018-07-19T11:41:21.917Z,28.75
2018-07-19T11:42:21.931Z,28.70
2018-07-19T11:43:21.941Z,28.39
2018-07-19T11:44:21.953Z,28.35
2018-07-19T11:45:21.966Z,28.54
2018-07-19T11:46:21.978Z,28.81
2018-07-19T11:47:21.989Z,28.86
2018-07-19T11:48:22.003Z,28.91
2018-07-19T11:49:22.016Z,28.85
2018-07-19T11:50:22.027Z,28.69
2018-07-19T11:51:22.038Z,28.78
2018-07-19T11:52:22.049Z,28.62
2018-07-19T11:53:22.062Z,28.84
2018-07-19T11:54:22.071Z,28.70
2018-07-19T11:55:22.086Z,28.78
2018-07-19T11:56:22.097Z,28.74
2018-07-19T11:57:22.108Z,28.39
2018-07-19T11:58:22.120Z,28.45
2018-07-19T11:59:22.131Z,28.76
2018-07-19T12:00:22.144Z,28.94
2018-07-19T12:01:22.157Z,28.97
2018-07-19T12:02:22.166Z,29.07
2018-07-19T12:03:22.178Z,29.04
2018-07-19T12:04:22.190Z,29.34
2018-07-19T12:05:22.201Z,29.68
2018-07-19T12:06:22.210Z,29.81
2018-07-19T12:07:22.223Z,29.88
2018-07-19T12:08:22.233Z,29.81
2018-07-19T12:09:22.246Z,29.47
2018-07-19T12:10:22.257Z,29.59
2018-07-19T12:11:22.269Z,29.86
2018-07-19T12:12:22.281Z,29.95
2018-07-19T12:13:22.293Z,29.78
2018-07-19T12:14:22.302Z,29.59
2018-07-19T12:15:22.317Z,29.81
2018-07-19T12:16:22.327Z,29.53
2018-07-19T12:17:22.338Z,29.38
2018-07-19T12:18:22.349Z,29.10
2018-07-19T12:19:22.360Z,29.38
2018-07-19T12:20:22.372Z,29.32
2018-07-19T12:21:22.383Z,29.61
2018-07-19T12:22:22.397Z,29.71
2018-07-19T12:23:22.405Z,29.87
2018-07-19T12:24:22.419Z,29.54
2018-07-19T12:25:22.427Z,29.24
2018-07-19T12:26:22.439Z,29.12
2018-07-19T12:27:22.450Z,29.26
2018-07-19T12:28:22.462Z,29.50
2018-07-19T12:29:22.474Z,29.81
2018-07-19T12:30:22.489Z,30.06
2018-07-19T12:31:22.556Z,30.24
2018-07-19T12:32:22.507Z,30.46
2018-07-19T12:33:22.520Z,30.43
2018-07-19T12:34:22.531Z,30.28
2018-07-19T12:35:22.542Z,30.08
2018-07-19T12:36:22.554Z,29.81
2018-07-19T12:37:22.564Z,29.71
2018-07-19T12:38:22.577Z,29.81
2018-07-19T12:39:22.586Z,29.81
2018-07-19T12:40:22.598Z,29.75
2018-07-19T12:41:22.609Z,29.81
2018-07-19T12:42:22.621Z,29.78
2018-07-19T12:43:22.632Z,29.36
2018-07-19T12:44:22.643Z,29.60
2018-07-19T12:45:22.656Z,29.59
2018-07-19T12:46:22.667Z,29.47
2018-07-19T12:47:22.678Z,29.57
2018-07-19T12:48:22.689Z,29.51
2018-07-19T12:49:22.702Z,29.12
2018-07-19T12:50:22.712Z,28.98
2018-07-19T12:51:22.725Z,29.01
2018-07-19T12:52:22.736Z,29.04